East Lake, North Carolina
Current Conditions -  °F | °C
As of 8:56 AM on Friday 24 Oct 2014 (Local Time) from K2DP Reporting Station
Clear Clear  
Wind Chill: 56°   Ceiling: Unl
Heat Index: 56°   Visibility: 10mi
Dew Point: 49°   Wind: 8mph
Humidity: 80%   Direction: 320°NW
Pressure: 30"   Gusts: NA
Location:  35.804°N, 75.9197°W
Report Text: K2DP 241256Z AUTO 32007KT 10SM CLR 13/10 A3000 RMK AO2 SLPNO T01310097
Loading
Personal Weather Stations






























Interactive Weather Map
Tropical Storm Tracking
New forecast layout! Learn more

10-Day Weather Forecast

Advertisements
Track Severe Weather on mobile